createdAt,value
2022-08-30T00:02:21.161Z,95242.59
2022-08-30T00:04:48.522Z,95237.94
2022-08-30T00:07:16.003Z,95244.19
2022-08-30T00:09:42.942Z,95240.97
2022-08-30T00:12:10.140Z,95236.94
2022-08-30T00:14:37.343Z,95239.16
2022-08-30T00:17:04.465Z,95233.91
2022-08-30T00:19:31.454Z,95227.84
2022-08-30T00:21:58.395Z,95240.34
2022-08-30T00:24:25.301Z,95234.69
2022-08-30T00:26:52.239Z,95236.34
2022-08-30T00:29:19.356Z,95235.19
2022-08-30T00:31:46.406Z,95230.34
2022-08-30T00:34:13.834Z,95237.00
2022-08-30T00:36:40.762Z,95233.56
2022-08-30T00:39:07.723Z,95227.56
2022-08-30T00:41:35.234Z,95232.81
2022-08-30T00:44:04.367Z,95241.50
2022-08-30T00:46:32.617Z,95240.09
2022-08-30T00:49:03.589Z,95238.09
2022-08-30T00:51:31.962Z,95243.16
2022-08-30T00:53:59.385Z,95231.66
2022-08-30T00:56:27.978Z,95241.94
2022-08-30T00:58:59.253Z,95235.28
2022-08-30T01:01:27.572Z,95242.13
2022-08-30T01:03:58.267Z,95248.59
2022-08-30T01:06:26.326Z,95248.19
2022-08-30T01:09:01.891Z,95238.31
2022-08-30T01:11:29.637Z,95231.03
2022-08-30T01:13:58.101Z,95230.03
2022-08-30T01:16:27.334Z,95236.09
2022-08-30T01:18:58.591Z,95229.22
2022-08-30T01:21:33.914Z,95232.50
2022-08-30T01:24:02.308Z,95229.28
2022-08-30T01:26:31.120Z,95231.25
2022-08-30T01:29:02.489Z,95233.28
2022-08-30T01:31:30.114Z,95237.72
2022-08-30T01:33:57.142Z,95236.31
2022-08-30T01:36:24.532Z,95235.69
2022-08-30T01:38:54.421Z,95238.09
2022-08-30T01:41:23.065Z,95239.72
2022-08-30T01:43:52.787Z,95240.31
2022-08-30T01:46:23.699Z,95229.28
2022-08-30T01:48:53.931Z,95221.19
2022-08-30T01:51:23.171Z,95217.94
2022-08-30T01:53:50.285Z,95229.84
2022-08-30T01:56:17.792Z,95206.09
2022-08-30T01:58:45.429Z,95219.38
2022-08-30T02:01:15.417Z,95208.31
2022-08-30T02:03:44.791Z,95213.75
2022-08-30T02:06:16.381Z,95216.38
2022-08-30T02:08:44.314Z,95221.19
2022-08-30T02:11:11.989Z,95211.31
2022-08-30T02:13:41.594Z,95212.53
2022-08-30T02:16:11.051Z,95214.34
2022-08-30T02:18:39.473Z,95208.72
2022-08-30T02:21:08.007Z,95211.94
2022-08-30T02:23:36.079Z,95208.31
2022-08-30T02:26:04.318Z,95213.56
2022-08-30T02:28:31.490Z,95217.97
2022-08-30T02:30:59.768Z,95214.34
2022-08-30T02:33:26.817Z,95204.47
2022-08-30T02:35:54.157Z,95213.94
2022-08-30T02:38:21.194Z,95213.94
2022-08-30T02:40:48.113Z,95211.94
2022-08-30T02:43:15.964Z,95210.72
2022-08-30T02:45:43.637Z,95209.09
2022-08-30T02:48:11.163Z,95207.50
2022-08-30T02:50:42.697Z,95216.56
2022-08-30T02:53:09.947Z,95210.72
2022-08-30T02:55:41.949Z,95210.53
2022-08-30T02:58:09.181Z,95213.94
2022-08-30T03:00:36.688Z,95206.91
2022-08-30T03:03:04.305Z,95209.91
2022-08-30T03:05:33.213Z,95207.06
2022-08-30T03:08:00.368Z,95204.88
2022-08-30T03:10:30.473Z,95199.41
2022-08-30T03:12:58.203Z,95214.72
2022-08-30T03:15:25.926Z,95215.56
2022-08-30T03:17:55.351Z,95210.09
2022-08-30T03:20:23.295Z,95211.91
2022-08-30T03:22:50.548Z,95216.75
2022-08-30T03:25:18.285Z,95216.75
2022-08-30T03:27:45.232Z,95225.63
2022-08-30T03:30:12.650Z,95222.97
2022-08-30T03:32:40.450Z,95223.00
2022-08-30T03:35:10.455Z,95210.47
2022-08-30T03:37:37.550Z,95220.53
2022-08-30T03:40:07.681Z,95220.13
2022-08-30T03:42:35.650Z,95214.28
2022-08-30T03:45:03.822Z,95218.28
2022-08-30T03:47:31.024Z,95224.88
2022-08-30T03:49:57.931Z,95228.69
2022-08-30T03:52:24.871Z,95225.84
2022-08-30T03:54:51.786Z,95225.47
2022-08-30T03:57:20.069Z,95233.53
2022-08-30T03:59:54.705Z,95227.50
2022-08-30T04:02:21.876Z,95221.88
2022-08-30T04:04:49.028Z,95207.84
2022-08-30T04:07:16.048Z,95217.84
2022-08-30T04:09:42.978Z,95220.72
2022-08-30T04:12:09.996Z,95214.03
2022-08-30T04:14:36.861Z,95231.38
2022-08-30T04:17:04.030Z,95228.50
2022-08-30T04:19:31.413Z,95229.13
2022-08-30T04:21:58.360Z,95235.16
2022-08-30T04:24:25.584Z,95238.59
2022-08-30T04:26:52.726Z,95234.59
2022-08-30T04:29:19.658Z,95239.66
2022-08-30T04:31:46.821Z,95238.84
2022-08-30T04:34:14.910Z,95242.00
2022-08-30T04:36:41.861Z,95239.59
2022-08-30T04:39:15.771Z,95241.19
2022-08-30T04:41:42.670Z,95245.88
2022-08-30T04:44:10.917Z,95246.50
2022-08-30T04:46:44.775Z,95246.94
2022-08-30T04:49:11.819Z,95244.13
2022-08-30T04:51:38.756Z,95254.22
2022-08-30T04:54:05.850Z,95243.34
2022-08-30T04:56:33.668Z,95251.81
2022-08-30T04:59:00.599Z,95256.25
2022-08-30T05:01:31.814Z,95263.94
2022-08-30T05:04:04.450Z,95257.88
2022-08-30T05:06:31.488Z,95263.50
2022-08-30T05:09:00.673Z,95266.72
2022-08-30T05:11:27.851Z,95262.09
2022-08-30T05:13:55.587Z,95271.97
2022-08-30T05:16:22.729Z,95271.56
2022-08-30T05:18:51.078Z,95273.38
2022-08-30T05:21:21.101Z,95271.59
2022-08-30T05:23:48.886Z,95277.41
2022-08-30T05:26:17.508Z,95281.25
2022-08-30T05:28:44.898Z,95279.84
2022-08-30T05:31:20.093Z,95274.00
2022-08-30T05:33:48.142Z,95278.44
2022-08-30T05:36:17.475Z,95281.06
2022-08-30T05:38:44.879Z,95277.63
2022-08-30T05:41:12.532Z,95278.81
2022-08-30T05:43:40.258Z,95280.03
2022-08-30T05:46:10.705Z,95273.41
2022-08-30T05:48:38.590Z,95277.41
2022-08-30T05:51:06.606Z,95275.19
2022-08-30T05:53:34.260Z,95273.41
2022-08-30T05:56:03.327Z,95278.47
2022-08-30T05:58:30.445Z,95276.00
2022-08-30T06:00:57.899Z,95280.66
2022-08-30T06:03:25.471Z,95273.41
2022-08-30T06:05:54.297Z,95282.03
2022-08-30T06:08:22.460Z,95280.81
2022-08-30T06:10:49.496Z,95275.19
2022-08-30T06:13:16.489Z,95281.25
2022-08-30T06:15:45.468Z,95276.81
2022-08-30T06:18:13.162Z,95285.28
2022-08-30T06:20:44.891Z,95284.47
2022-08-30T06:23:11.779Z,95280.84
2022-08-30T06:25:41.197Z,95288.13
2022-08-30T06:28:10.130Z,95308.06
2022-08-30T06:30:39.688Z,95303.25
2022-08-30T06:33:06.650Z,95305.47
2022-08-30T06:35:38.214Z,95302.00
2022-08-30T06:38:13.907Z,95307.09
2022-08-30T06:40:42.463Z,95312.13
2022-08-30T06:43:09.479Z,95310.31
2022-08-30T06:45:36.941Z,95301.22
2022-08-30T06:48:04.136Z,95306.06
2022-08-30T06:50:32.135Z,95316.56
2022-08-30T06:53:05.875Z,95313.09
2022-08-30T06:55:33.696Z,95307.88
2022-08-30T06:58:02.047Z,95319.34
2022-08-30T07:00:29.665Z,95317.09
2022-08-30T07:02:57.242Z,95323.97
2022-08-30T07:05:24.270Z,95318.72
2022-08-30T07:07:55.007Z,95314.28
2022-08-30T07:10:22.125Z,95321.34
2022-08-30T07:12:49.614Z,95324.38
2022-08-30T07:15:16.888Z,95317.75
2022-08-30T07:18:02.585Z,95323.59
2022-08-30T07:20:39.872Z,95334.91
2022-08-30T07:23:09.095Z,95329.25
2022-08-30T07:25:37.870Z,95328.44
2022-08-30T07:28:06.165Z,95325.84
2022-08-30T07:30:33.889Z,95320.38
2022-08-30T07:33:01.190Z,95326.22
2022-08-30T07:35:28.604Z,95321.41
2022-08-30T07:37:55.623Z,95333.88
2022-08-30T07:40:22.851Z,95321.19
2022-08-30T07:42:49.911Z,95326.78
2022-08-30T07:45:17.115Z,95320.72
2022-08-30T07:47:44.368Z,95322.16
2022-08-30T07:50:11.290Z,95325.13
2022-08-30T07:55:25.423Z,95330.19
2022-08-30T07:57:52.445Z,95339.88
2022-08-30T08:00:19.541Z,95328.13
2022-08-30T08:02:46.583Z,95337.63
2022-08-30T08:05:17.661Z,95339.22
2022-08-30T08:07:45.756Z,95343.63
2022-08-30T08:10:13.697Z,95338.16
2022-08-30T08:12:41.242Z,95332.91
2022-08-30T08:15:09.098Z,95331.34
2022-08-30T08:17:36.171Z,95329.47
2022-08-30T08:20:04.527Z,95342.34
2022-08-30T08:22:44.813Z,95331.84
2022-08-30T08:25:24.917Z,95344.97
2022-08-30T08:28:11.800Z,95341.50
2022-08-30T08:30:48.285Z,95339.59
2022-08-30T08:33:16.000Z,95331.69
2022-08-30T08:35:43.347Z,95332.63
2022-08-30T08:38:10.419Z,95334.00
2022-08-30T08:41:03.654Z,95334.16
2022-08-30T08:43:36.004Z,95332.03
2022-08-30T08:46:24.278Z,95334.84
2022-08-30T08:49:01.663Z,95297.94
2022-08-30T08:51:51.977Z,95327.59
2022-08-30T08:54:27.745Z,95308.78
2022-08-30T08:56:54.957Z,95323.47
2022-08-30T08:59:22.554Z,95328.38
2022-08-30T09:01:51.067Z,95331.88
2022-08-30T09:04:24.772Z,95330.50
2022-08-30T09:07:04.086Z,95337.56
2022-08-30T09:09:37.187Z,95335.31
2022-08-30T09:12:06.220Z,95332.69
2022-08-30T09:14:44.256Z,95333.06
2022-08-30T09:17:18.495Z,95336.28
2022-08-30T09:19:59.525Z,95325.34
2022-08-30T09:22:42.699Z,95329.28
2022-08-30T09:25:13.679Z,95327.63
2022-08-30T09:27:43.406Z,95326.75
2022-08-30T09:30:22.374Z,95336.47
2022-08-30T09:33:05.554Z,95331.09
2022-08-30T09:35:36.983Z,95340.88
2022-08-30T09:38:08.097Z,95334.53
2022-08-30T09:40:35.068Z,95329.75
2022-08-30T09:43:09.939Z,95331.31
2022-08-30T09:45:42.376Z,95319.66
2022-08-30T09:51:55.619Z,95317.47
2022-08-30T09:54:31.602Z,95320.09
2022-08-30T09:57:11.728Z,95313.94
2022-08-30T09:59:51.428Z,95313.03
2022-08-30T10:02:37.277Z,95315.94
2022-08-30T10:05:31.131Z,95315.66
2022-08-30T10:08:01.150Z,95301.47
2022-08-30T10:10:35.876Z,95304.75
2022-08-30T10:13:19.276Z,95302.50
2022-08-30T10:15:52.299Z,95298.16
2022-08-30T10:18:33.717Z,95301.97
2022-08-30T10:21:14.458Z,95297.31
2022-08-30T10:23:51.582Z,95292.63
2022-08-30T10:26:26.608Z,95288.63
2022-08-30T10:29:09.367Z,95288.19
2022-08-30T10:31:47.733Z,95293.03
2022-08-30T10:34:21.751Z,95282.59
2022-08-30T10:36:56.173Z,95285.34
2022-08-30T10:39:45.917Z,95269.50
2022-08-30T10:42:39.361Z,95280.72
2022-08-30T10:45:15.238Z,95276.25
2022-08-30T10:47:44.990Z,95263.28
2022-08-30T10:50:28.192Z,95280.00
2022-08-30T10:53:03.435Z,95272.66
2022-08-30T10:55:35.692Z,95270.72
2022-08-30T10:58:06.746Z,95263.59
2022-08-30T11:00:46.921Z,95260.13
2022-08-30T11:03:37.364Z,95259.47
2022-08-30T11:06:14.613Z,95258.38
2022-08-30T11:08:47.269Z,95252.63
2022-08-30T11:11:31.140Z,95246.59
2022-08-30T11:14:05.465Z,95247.53
2022-08-30T11:16:43.257Z,95246.16
2022-08-30T11:19:38.390Z,95245.84
2022-08-30T11:22:11.048Z,95229.28
2022-08-30T11:24:58.198Z,95231.56
2022-08-30T11:27:49.472Z,95221.34
2022-08-30T11:30:24.336Z,95219.88
2022-08-30T11:33:25.575Z,95224.13
2022-08-30T11:35:53.899Z,95231.03
2022-08-30T11:38:40.737Z,95218.94
2022-08-30T11:41:28.893Z,95224.34
2022-08-30T11:44:14.262Z,95232.63
2022-08-30T11:46:42.519Z,95229.13
2022-08-30T11:49:15.593Z,95229.03
2022-08-30T11:55:22.531Z,95213.13
2022-08-30T11:58:05.038Z,95204.09
2022-08-30T12:00:35.213Z,95211.34
2022-08-30T12:03:04.757Z,95203.09
2022-08-30T12:05:38.818Z,95200.94
2022-08-30T12:08:28.039Z,95200.75
2022-08-30T12:10:59.167Z,95196.03
2022-08-30T12:13:35.157Z,95198.56
2022-08-30T12:16:05.397Z,95180.88
2022-08-30T12:18:44.517Z,95179.56
2022-08-30T12:21:21.290Z,95179.47
2022-08-30T12:23:57.468Z,95179.31
2022-08-30T12:26:25.058Z,95175.16
2022-08-30T12:29:15.580Z,95164.41
2022-08-30T12:32:05.590Z,95166.25
2022-08-30T12:34:37.612Z,95166.28
2022-08-30T12:37:11.504Z,95155.16
2022-08-30T12:39:42.267Z,95154.19
2022-08-30T12:42:20.263Z,95157.97
2022-08-30T12:44:49.039Z,95143.69
2022-08-30T12:47:22.889Z,95148.50
2022-08-30T12:49:51.027Z,95143.97
2022-08-30T12:52:26.858Z,95138.63
2022-08-30T12:55:05.198Z,95129.75
2022-08-30T12:58:10.640Z,95137.50
2022-08-30T13:00:43.369Z,95142.25
2022-08-30T13:03:57.825Z,95139.34
2022-08-30T13:06:43.949Z,95143.06
2022-08-30T13:09:34.827Z,95135.88
2022-08-30T13:12:04.993Z,95143.63
2022-08-30T13:14:36.934Z,95138.78
2022-08-30T13:17:28.736Z,95136.09
2022-08-30T13:20:05.951Z,95128.41
2022-08-30T13:22:41.885Z,95128.97
2022-08-30T13:25:28.880Z,95128.25
2022-08-30T13:28:09.328Z,95134.63
2022-08-30T13:30:43.485Z,95143.66
2022-08-30T13:33:11.721Z,95137.31
2022-08-30T13:35:38.783Z,95131.47
2022-08-30T13:38:05.949Z,95122.91
2022-08-30T13:40:32.938Z,95126.59
2022-08-30T13:43:01.218Z,95122.88
2022-08-30T13:45:43.722Z,95123.16
2022-08-30T13:48:12.651Z,95126.09
2022-08-30T13:50:40.168Z,95121.31
2022-08-30T13:53:09.468Z,95105.34
2022-08-30T13:55:39.145Z,95112.00
2022-08-30T13:58:07.975Z,95103.75
2022-08-30T14:00:37.789Z,95093.41
2022-08-30T14:03:05.249Z,95109.31
2022-08-30T14:06:09.933Z,95102.06
2022-08-30T14:08:45.209Z,95108.41
2022-08-30T14:11:18.525Z,95106.34
2022-08-30T14:16:34.855Z,95101.56
2022-08-30T14:19:02.502Z,95103.66
2022-08-30T14:21:29.746Z,95105.03
2022-08-30T14:23:58.913Z,95099.44
2022-08-30T14:26:32.525Z,95094.53
2022-08-30T14:29:02.428Z,95092.94
2022-08-30T14:31:32.840Z,95074.81
2022-08-30T14:34:04.343Z,95082.31
2022-08-30T14:36:34.362Z,95088.00
2022-08-30T14:39:06.270Z,95080.06
2022-08-30T14:41:43.464Z,95077.16
2022-08-30T14:44:12.463Z,95075.31
2022-08-30T14:46:39.448Z,95072.91
2022-08-30T14:49:10.193Z,95079.34
2022-08-30T14:51:38.279Z,95076.66
2022-08-30T14:54:05.642Z,95069.47
2022-08-30T14:56:32.728Z,95070.25
2022-08-30T14:59:02.835Z,95068.63
2022-08-30T15:01:31.540Z,95065.97
2022-08-30T15:04:00.839Z,95070.75
2022-08-30T15:06:28.234Z,95075.75
2022-08-30T15:08:55.850Z,95070.41
2022-08-30T15:11:25.909Z,95070.38
2022-08-30T15:13:54.505Z,95065.81
2022-08-30T15:16:22.926Z,95062.16
2022-08-30T15:18:51.062Z,95059.28
2022-08-30T15:21:30.825Z,95059.06
2022-08-30T15:23:59.625Z,95061.16
2022-08-30T15:26:28.301Z,95056.91
2022-08-30T15:28:55.865Z,95055.63
2022-08-30T15:31:24.778Z,95055.34
2022-08-30T15:33:51.870Z,95049.97
2022-08-30T15:36:18.886Z,95060.63
2022-08-30T15:38:46.104Z,95058.97
2022-08-30T15:41:13.574Z,95059.25
2022-08-30T15:43:41.349Z,95057.88
2022-08-30T15:46:30.265Z,95056.28
2022-08-30T15:49:04.311Z,95060.22
2022-08-30T15:51:41.221Z,95054.63
2022-08-30T15:54:13.794Z,95049.84
2022-08-30T15:56:44.064Z,95040.88
2022-08-30T15:59:12.267Z,95049.75
2022-08-30T16:01:39.333Z,95053.81
2022-08-30T16:04:06.804Z,95052.19
2022-08-30T16:06:37.632Z,95052.16
2022-08-30T16:09:06.825Z,95045.69
2022-08-30T16:11:34.674Z,95040.59
2022-08-30T16:14:01.849Z,95040.03
2022-08-30T16:16:29.135Z,95036.84
2022-08-30T16:18:56.121Z,95036.81
2022-08-30T16:21:29.614Z,95045.25
2022-08-30T16:23:59.179Z,95042.44
2022-08-30T16:26:27.363Z,95050.81
2022-08-30T16:28:55.679Z,95038.00
2022-08-30T16:31:23.491Z,95048.56
2022-08-30T16:33:52.775Z,95049.84
2022-08-30T16:36:21.423Z,95060.09
2022-08-30T16:38:49.347Z,95065.88
2022-08-30T16:41:22.449Z,95070.88
2022-08-30T16:43:53.244Z,95069.44
2022-08-30T16:46:23.432Z,95058.94
2022-08-30T16:49:01.644Z,95072.44
2022-08-30T16:51:31.548Z,95068.09
2022-08-30T16:54:01.263Z,95058.69
2022-08-30T16:56:31.133Z,95075.53
2022-08-30T17:01:45.930Z,95071.44
2022-08-30T17:04:18.388Z,95080.31
2022-08-30T17:06:48.160Z,95083.78
2022-08-30T17:09:17.300Z,95080.66
2022-08-30T17:11:45.239Z,95085.31
2022-08-30T17:14:12.292Z,95087.00
2022-08-30T17:16:41.427Z,95079.91
2022-08-30T17:19:09.400Z,95085.56
2022-08-30T17:21:36.610Z,95086.56
2022-08-30T17:24:06.014Z,95087.75
2022-08-30T17:26:35.814Z,95100.56
2022-08-30T17:29:04.533Z,95092.41
2022-08-30T17:31:31.650Z,95092.09
2022-08-30T17:34:03.442Z,95102.72
2022-08-30T17:36:36.367Z,95111.00
2022-08-30T17:39:10.827Z,95113.59
2022-08-30T17:41:39.483Z,95117.38
2022-08-30T17:44:06.425Z,95116.00
2022-08-30T17:46:35.576Z,95106.88
2022-08-30T17:49:03.201Z,95119.06
2022-08-30T17:51:30.687Z,95123.91
2022-08-30T17:53:58.530Z,95128.63
2022-08-30T17:56:34.260Z,95122.41
2022-08-30T17:59:05.077Z,95126.22
2022-08-30T18:01:32.350Z,95122.31
2022-08-30T18:04:01.964Z,95123.72
2022-08-30T18:06:34.624Z,95126.59
2022-08-30T18:09:06.682Z,95136.56
2022-08-30T18:11:36.259Z,95137.28
2022-08-30T18:14:04.423Z,95141.63
2022-08-30T18:16:33.666Z,95143.91
2022-08-30T18:19:09.575Z,95134.03
2022-08-30T18:21:37.999Z,95131.75
2022-08-30T18:24:05.898Z,95142.53
2022-08-30T18:26:33.478Z,95146.25
2022-08-30T18:29:00.698Z,95137.53
2022-08-30T18:31:27.925Z,95148.19
2022-08-30T18:33:55.395Z,95138.91
2022-08-30T18:36:22.348Z,95144.50
2022-08-30T18:38:49.319Z,95144.13
2022-08-30T18:41:17.397Z,95145.72
2022-08-30T18:43:44.769Z,95142.97
2022-08-30T18:46:14.981Z,95144.88
2022-08-30T18:48:42.114Z,95147.25
2022-08-30T18:51:19.144Z,95144.84
2022-08-30T18:53:47.948Z,95142.44
2022-08-30T18:56:16.965Z,95155.00
2022-08-30T18:58:46.102Z,95156.34
2022-08-30T19:01:13.227Z,95150.91
2022-08-30T19:03:41.878Z,95149.75
2022-08-30T19:06:11.755Z,95151.56
2022-08-30T19:08:40.403Z,95151.56
2022-08-30T19:11:09.074Z,95147.22
2022-08-30T19:13:37.464Z,95144.88
2022-08-30T19:16:05.959Z,95151.81
2022-08-30T19:18:33.987Z,95156.50
2022-08-30T19:21:03.663Z,95146.44
2022-08-30T19:23:34.383Z,95151.91
2022-08-30T19:26:01.429Z,95151.09
2022-08-30T19:28:28.759Z,95146.88
2022-08-30T19:30:55.646Z,95151.09
2022-08-30T19:33:22.652Z,95146.06
2022-08-30T19:35:51.323Z,95146.06
2022-08-30T19:38:18.748Z,95143.28
2022-08-30T19:40:50.074Z,95151.53
2022-08-30T19:43:20.867Z,95152.41
2022-08-30T19:45:53.425Z,95144.63
2022-08-30T19:48:22.267Z,95149.06
2022-08-30T19:50:49.966Z,95145.25
2022-08-30T19:53:17.376Z,95142.91
2022-08-30T19:55:44.811Z,95144.16
2022-08-30T19:58:11.740Z,95149.84
2022-08-30T20:00:39.254Z,95145.38
2022-08-30T20:03:12.534Z,95130.94
2022-08-30T20:05:42.784Z,95138.97
2022-08-30T20:08:10.024Z,95149.50
2022-08-30T20:10:37.742Z,95138.81
2022-08-30T20:13:05.514Z,95138.97
2022-08-30T20:15:32.513Z,95134.78
2022-08-30T20:18:05.556Z,95139.03
2022-08-30T20:20:36.174Z,95138.06
2022-08-30T20:23:04.892Z,95132.19
2022-08-30T20:24:23.255Z,95069.28
2022-08-30T20:25:31.962Z,95139.69
2022-08-30T20:27:59.583Z,95142.47
2022-08-30T20:30:27.271Z,95136.03
2022-08-30T20:32:54.456Z,95128.94
2022-08-30T20:35:22.027Z,95151.38
2022-08-30T20:37:50.935Z,95148.09
2022-08-30T20:40:17.823Z,95147.09
2022-08-30T20:42:46.539Z,95148.69
2022-08-30T20:45:16.214Z,95151.69
2022-08-30T20:47:43.832Z,95147.00
2022-08-30T20:50:16.517Z,95142.91
2022-08-30T20:52:43.947Z,95139.25
2022-08-30T20:55:12.046Z,95141.91
2022-08-30T20:57:39.388Z,95137.88
2022-08-30T21:00:11.072Z,95144.16
2022-08-30T21:02:46.262Z,95132.97
2022-08-30T21:05:15.522Z,95132.59
2022-08-30T21:07:42.839Z,95132.44
2022-08-30T21:10:10.022Z,95132.06
2022-08-30T21:12:36.950Z,95136.31
2022-08-30T21:15:26.846Z,95143.00
2022-08-30T21:17:52.054Z,95131.16
2022-08-30T21:20:19.007Z,95131.44
2022-08-30T21:22:45.911Z,95134.13
2022-08-30T21:25:13.266Z,95131.78
2022-08-30T21:27:40.246Z,95126.78
2022-08-30T21:30:07.594Z,95133.44
2022-08-30T21:32:34.953Z,95134.44
2022-08-30T21:35:20.267Z,95133.44
2022-08-30T21:37:47.130Z,95134.81
2022-08-30T21:40:17.222Z,95132.00
2022-08-30T21:42:46.154Z,95129.34
2022-08-30T21:45:13.927Z,95117.25
2022-08-30T21:47:41.852Z,95123.72
2022-08-30T21:50:09.125Z,95109.63
2022-08-30T21:52:36.419Z,95118.50
2022-08-30T21:55:04.559Z,95116.53
2022-08-30T21:57:32.639Z,95117.72
2022-08-30T21:59:59.787Z,95119.97
2022-08-30T22:02:26.799Z,95130.03
2022-08-30T22:04:54.679Z,95124.41
2022-08-30T22:07:21.613Z,95122.59
2022-08-30T22:09:48.532Z,95134.66
2022-08-30T22:12:15.540Z,95131.81
2022-08-30T22:14:42.838Z,95128.97
2022-08-30T22:17:09.876Z,95130.41
2022-08-30T22:19:37.006Z,95120.28
2022-08-30T22:22:04.090Z,95124.41
2022-08-30T22:24:32.872Z,95139.16
2022-08-30T22:27:00.588Z,95143.00
2022-08-30T22:29:27.613Z,95141.59
2022-08-30T22:31:54.669Z,95145.81
2022-08-30T22:34:21.760Z,95144.63
2022-08-30T22:36:48.715Z,95143.00
2022-08-30T22:39:15.734Z,95145.00
2022-08-30T22:41:46.189Z,95146.50
2022-08-30T22:44:13.237Z,95140.13
2022-08-30T22:46:40.478Z,95136.72
2022-08-30T22:49:09.667Z,95137.53
2022-08-30T22:51:38.198Z,95134.50
2022-08-30T22:54:06.876Z,95130.44
2022-08-30T22:56:35.872Z,95132.28
2022-08-30T22:59:02.762Z,95129.66
2022-08-30T23:01:33.074Z,95136.72
2022-08-30T23:04:03.673Z,95127.25
2022-08-30T23:06:30.871Z,95123.47
2022-08-30T23:08:58.092Z,95131.31
2022-08-30T23:11:25.714Z,95125.69
2022-08-30T23:13:53.416Z,95113.81
2022-08-30T23:16:21.751Z,95127.31
2022-08-30T23:18:48.963Z,95116.22
2022-08-30T23:21:24.399Z,95120.25
2022-08-30T23:24:11.941Z,95114.22
2022-08-30T23:26:58.182Z,95117.44
2022-08-30T23:29:44.145Z,95108.75
2022-08-30T23:32:29.930Z,95103.75
2022-08-30T23:35:15.495Z,95103.13
2022-08-30T23:38:01.046Z,95103.94
2022-08-30T23:40:46.731Z,95107.16
2022-08-30T23:43:32.390Z,95092.63
2022-08-30T23:46:18.987Z,95095.41
2022-08-30T23:49:09.563Z,95099.06
2022-08-30T23:51:56.893Z,95096.44
2022-08-30T23:54:43.341Z,95098.88
2022-08-30T23:57:29.089Z,95096.53
